Time;durP1;ratioP1;P1;durP2;ratioP2;P2;SDS_P1;SDS_P2;PMS_P1;PMS_P2;Temp;Humidity;BMP_temperature;BMP_pressure;BME280_temperature;BME280_humidity;BME280_pressure;Samples;Min_cycle;Max_cycle;Signal;HPM_P1;HPM_P2
2021/12/19 00:01:33;;;;;;;44.40;23.08;;;8.20;99.90;;;;;;5073055;28;20040;-81
2021/12/19 00:04:03;;;;;;;47.88;26.67;;;8.10;99.90;;;;;;5073124;28;20036;-81
2021/12/19 00:09:13;;;;;;;45.47;26.85;;;8.40;99.90;;;;;;5072876;28;20075;-81
2021/12/19 00:11:39;;;;;;;44.35;25.40;;;8.30;99.90;;;;;;5070538;28;20473;-80
2021/12/19 00:14:06;;;;;;;48.83;26.08;;;8.10;99.90;;;;;;5070105;28;20059;-81
2021/12/19 00:16:32;;;;;;;49.95;25.92;;;8.00;99.90;;;;;;5073157;28;20028;-81
2021/12/19 00:18:57;;;;;;;44.85;26.83;;;8.20;99.90;;;;;;5073037;28;20388;-80
2021/12/19 00:21:25;;;;;;;47.53;28.45;;;8.20;99.90;;;;;;5072970;28;20028;-81
2021/12/19 00:23:53;;;;;;;49.38;26.17;;;8.00;99.90;;;;;;5073028;28;20202;-81
2021/12/19 00:26:18;;;;;;;45.10;25.17;;;8.00;99.90;;;;;;5072419;28;20488;-81
2021/12/19 00:28:46;;;;;;;51.45;27.25;;;8.10;99.90;;;;;;5073116;28;20117;-80
2021/12/19 00:31:12;;;;;;;44.33;25.75;;;8.20;99.90;;;;;;5071578;28;20033;-81
2021/12/19 00:33:39;;;;;;;47.72;25.83;;;8.40;99.90;;;;;;5072915;28;20028;-81
2021/12/19 00:36:06;;;;;;;48.85;25.48;;;8.40;99.90;;;;;;5072996;28;20380;-81
2021/12/19 00:38:32;;;;;;;42.15;24.13;;;8.40;99.90;;;;;;5072983;28;20026;-81
2021/12/19 00:40:58;;;;;;;49.65;27.90;;;8.30;99.90;;;;;;5072570;28;20032;-81
2021/12/19 00:43:44;;;;;;;45.75;26.50;;;8.40;99.90;;;;;;5073180;28;20013;-81
2021/12/19 00:46:13;;;;;;;52.53;27.85;;;8.50;99.90;;;;;;5072491;28;20033;-80
2021/12/19 00:48:46;;;;;;;51.72;28.90;;;8.30;99.90;;;;;;5072790;28;20036;-81
2021/12/19 00:51:14;;;;;;;49.45;28.17;;;8.60;99.90;;;;;;5072627;28;20032;-81
2021/12/19 00:53:42;;;;;;;55.55;29.85;;;8.60;99.90;;;;;;5071791;28;20040;-81
2021/12/19 00:56:08;;;;;;;64.45;32.78;;;8.30;99.90;;;;;;5072310;28;20082;-81
2021/12/19 00:58:34;;;;;;;72.07;34.55;;;8.20;99.90;;;;;;5072677;28;20025;-80
2021/12/19 01:01:01;;;;;;;73.80;34.40;;;8.00;99.90;;;;;;5062395;28;20390;-80
2021/12/19 01:03:27;;;;;;;76.78;35.88;;;8.00;99.90;;;;;;5052707;28;20052;-81
2021/12/19 01:05:53;;;;;;;77.50;36.40;;;8.20;99.90;;;;;;5052528;28;20414;-81
2021/12/19 01:08:19;;;;;;;66.57;33.65;;;7.90;99.90;;;;;;5055502;28;20025;-81
2021/12/19 01:10:47;;;;;;;60.10;30.10;;;7.90;99.90;;;;;;5072359;28;20033;-80
2021/12/19 01:13:14;;;;;;;61.28;29.10;;;7.70;99.90;;;;;;5072485;28;20032;-81
2021/12/19 01:15:40;;;;;;;49.42;27.55;;;7.40;99.90;;;;;;5072825;28;20103;-81
2021/12/19 01:18:05;;;;;;;58.53;29.80;;;7.10;99.90;;;;;;5072461;28;20033;-80
2021/12/19 01:20:34;;;;;;;57.97;30.08;;;7.10;99.90;;;;;;5072252;28;20039;-81
2021/12/19 01:23:01;;;;;;;58.47;29.55;;;7.20;99.90;;;;;;5075267;28;20040;-81
2021/12/19 01:25:27;;;;;;;60.22;29.38;;;7.30;99.90;;;;;;5076179;28;20538;-81
2021/12/19 01:27:53;;;;;;;62.63;29.88;;;7.10;99.90;;;;;;5076112;28;20044;-80
2021/12/19 01:30:19;;;;;;;64.90;30.30;;;7.10;99.90;;;;;;5076121;28;20025;-81
2021/12/19 01:32:45;;;;;;;62.45;30.63;;;7.10;99.90;;;;;;5074983;28;20491;-80
2021/12/19 01:35:13;;;;;;;65.90;31.50;;;7.10;99.90;;;;;;5074877;28;20029;-81
2021/12/19 01:37:38;;;;;;;71.05;32.53;;;7.20;99.90;;;;;;5075619;28;20036;-81
2021/12/19 01:40:06;;;;;;;75.28;34.60;;;7.20;99.90;;;;;;5075968;28;20024;-80
2021/12/19 01:42:38;;;;;;;76.78;34.60;;;7.20;99.90;;;;;;5075899;28;20129;-81
2021/12/19 01:45:07;;;;;;;103.65;40.17;;;7.00;99.90;;;;;;5075989;28;20037;-81
2021/12/19 01:47:34;;;;;;;81.95;35.58;;;7.10;99.90;;;;;;5075743;28;20072;-80
2021/12/19 01:49:59;;;;;;;78.82;34.97;;;7.20;99.90;;;;;;5075951;28;20039;-81
2021/12/19 01:52:28;;;;;;;80.95;35.70;;;7.20;99.90;;;;;;5075483;28;20485;-81
2021/12/19 01:54:56;;;;;;;98.00;38.78;;;7.30;99.90;;;;;;5075781;28;20029;-80
2021/12/19 01:57:24;;;;;;;113.20;39.33;;;7.20;99.90;;;;;;5075613;28;20033;-81
2021/12/19 01:59:50;;;;;;;116.15;40.42;;;7.10;99.90;;;;;;5075817;28;20033;-81
2021/12/19 02:02:16;;;;;;;109.85;41.17;;;7.10;99.90;;;;;;5075292;28;20024;-81
2021/12/19 02:04:43;;;;;;;149.75;48.00;;;7.10;99.90;;;;;;5069641;28;20362;-78
2021/12/19 02:07:10;;;;;;;154.20;48.13;;;7.20;99.90;;;;;;5054922;28;20472;-80
2021/12/19 02:09:36;;;;;;;146.65;46.92;;;7.10;99.90;;;;;;5069164;28;20025;-81
2021/12/19 02:12:03;;;;;;;160.95;47.38;;;7.00;99.90;;;;;;5075485;28;20468;-81
2021/12/19 02:14:29;;;;;;;148.30;46.70;;;7.00;99.90;;;;;;5075352;28;20024;-81
2021/12/19 02:16:55;;;;;;;156.27;46.53;;;6.90;99.90;;;;;;5075531;28;20491;-80
2021/12/19 02:19:22;;;;;;;147.77;46.75;;;7.00;99.90;;;;;;5074883;28;20029;-81
2021/12/19 02:21:49;;;;;;;155.40;47.17;;;6.90;99.90;;;;;;5075173;28;20051;-82
2021/12/19 02:24:15;;;;;;;161.27;47.83;;;6.90;99.90;;;;;;5075262;28;20503;-81
2021/12/19 02:26:43;;;;;;;153.55;46.85;;;7.10;99.90;;;;;;5073584;28;20074;-80
2021/12/19 02:29:10;;;;;;;170.73;46.85;;;6.90;99.90;;;;;;5073920;28;20112;-81
2021/12/19 02:31:36;;;;;;;171.10;47.92;;;6.80;99.90;;;;;;5075281;28;20028;-80
2021/12/19 02:34:11;;;;;;;188.13;48.28;;;6.80;99.90;;;;;;5074273;28;20078;-81
2021/12/19 02:50:04;;;;;;;183.80;52.15;;;6.90;99.90;;;;;;5074356;28;20116;-80
2021/12/19 02:52:30;;;;;;;193.45;50.55;;;6.80;99.90;;;;;;5074686;28;20028;-80
2021/12/19 02:54:56;;;;;;;167.07;49.97;;;6.90;99.90;;;;;;5074410;28;20381;-81
2021/12/19 02:57:22;;;;;;;175.82;49.80;;;6.90;99.90;;;;;;5074583;28;20025;-80
2021/12/19 02:59:48;;;;;;;177.18;49.05;;;6.80;99.90;;;;;;5074647;28;20096;-81
2021/12/19 03:02:15;;;;;;;181.20;50.00;;;6.80;99.90;;;;;;5074556;28;20029;-81
2021/12/19 03:04:55;;;;;;;162.07;48.80;;;6.80;99.90;;;;;;5074049;28;20044;-81
2021/12/19 03:07:21;;;;;;;196.85;50.10;;;6.80;99.90;;;;;;5074164;28;20036;-80
2021/12/19 03:10:12;;;;;;;209.02;48.85;;;6.80;99.90;;;;;;5074118;28;20671;-80
2021/12/19 03:18:09;;;;;;;151.05;44.92;;;6.70;99.90;;;;;;5074303;28;20028;-81
2021/12/19 03:20:37;;;;;;;184.27;44.90;;;6.60;99.90;;;;;;5073616;28;20043;-79
2021/12/19 03:23:05;;;;;;;175.32;42.78;;;6.80;99.90;;;;;;5074137;28;20393;-81
2021/12/19 03:25:32;;;;;;;167.52;43.55;;;6.80;99.90;;;;;;5073755;28;20020;-81
2021/12/19 03:27:59;;;;;;;178.48;43.97;;;6.70;99.90;;;;;;5072669;28;20036;-81
2021/12/19 03:30:25;;;;;;;172.02;40.45;;;6.70;99.90;;;;;;5073869;28;20074;-81
2021/12/19 03:32:51;;;;;;;190.15;42.63;;;6.70;99.90;;;;;;5074007;28;20033;-81
2021/12/19 03:35:18;;;;;;;216.02;41.28;;;6.80;99.90;;;;;;5069275;28;20009;-81
2021/12/19 03:37:44;;;;;;;161.45;37.53;;;6.80;99.90;;;;;;5053802;28;20056;-80
2021/12/19 03:40:13;;;;;;;138.98;36.65;;;6.80;99.90;;;;;;5056021;28;20075;-81
2021/12/19 03:42:47;;;;;;;132.82;34.08;;;6.90;99.90;;;;;;5054020;28;20083;-81
2021/12/19 03:45:17;;;;;;;120.07;33.17;;;7.00;99.90;;;;;;5053372;28;20025;-77
2021/12/19 03:47:44;;;;;;;113.30;30.23;;;7.10;99.90;;;;;;5053523;28;20102;-81
2021/12/19 03:50:12;;;;;;;137.70;29.50;;;6.90;99.90;;;;;;5053698;28;20092;-81
2021/12/19 03:52:38;;;;;;;125.00;26.63;;;7.20;99.90;;;;;;5053640;28;20139;-82
2021/12/19 03:55:06;;;;;;;79.28;24.70;;;7.30;99.90;;;;;;5065123;28;20059;-81
2021/12/19 03:57:31;;;;;;;95.22;22.30;;;7.00;99.90;;;;;;5072170;28;20035;-81
2021/12/19 03:59:57;;;;;;;96.00;20.00;;;7.00;99.90;;;;;;5073331;28;20017;-81
2021/12/19 04:02:27;;;;;;;99.13;20.15;;;6.80;99.90;;;;;;5056524;28;20036;-81
2021/12/19 04:04:55;;;;;;;84.75;20.02;;;6.70;99.90;;;;;;5053120;28;20499;-81
2021/12/19 04:07:22;;;;;;;75.63;20.23;;;6.70;99.90;;;;;;5053338;28;20083;-81
2021/12/19 04:09:48;;;;;;;94.10;21.63;;;6.70;99.90;;;;;;5068545;28;20499;-82
2021/12/19 04:12:14;;;;;;;89.53;21.02;;;6.70;99.90;;;;;;5073221;28;20024;-80
2021/12/19 04:14:39;;;;;;;85.35;20.30;;;6.60;99.90;;;;;;5072982;28;20035;-81
2021/12/19 04:17:05;;;;;;;82.90;20.13;;;6.70;99.90;;;;;;5070602;28;20055;-81
2021/12/19 04:19:31;;;;;;;96.28;20.67;;;6.70;99.90;;;;;;5052838;28;20389;-82
2021/12/19 04:21:58;;;;;;;75.45;18.80;;;6.60;99.90;;;;;;5056500;28;20025;-82
2021/12/19 04:24:24;;;;;;;81.93;18.15;;;6.70;99.90;;;;;;5051901;28;20539;-80
2021/12/19 04:26:49;;;;;;;72.65;18.33;;;6.60;99.90;;;;;;5054035;28;20021;-79
2021/12/19 04:29:15;;;;;;;65.20;19.13;;;6.70;99.90;;;;;;5051885;28;20044;-80
2021/12/19 04:31:41;;;;;;;91.75;18.85;;;6.70;99.90;;;;;;5054751;28;20032;-80
2021/12/19 04:34:07;;;;;;;68.53;19.05;;;6.50;99.90;;;;;;5063143;28;20029;-76
2021/12/19 04:36:39;;;;;;;68.88;18.92;;;6.40;99.90;;;;;;5052767;28;20523;-79
2021/12/19 04:42:32;;;;;;;70.13;18.80;;;6.50;99.90;;;;;;5058666;28;20469;-79
2021/12/19 04:55:42;;;;;;;38.80;12.27;;;6.30;99.90;;;;;;5065679;28;20087;-79
2021/12/19 05:00:29;;;;;;;37.30;13.85;;;6.20;99.90;;;;;;5061009;28;20559;-82
2021/12/19 05:03:03;;;;;;;37.92;13.40;;;6.20;99.90;;;;;;5055612;28;20121;-83
2021/12/19 05:06:00;;;;;;;40.90;13.60;;;6.30;99.90;;;;;;5056861;28;20063;-83
2021/12/19 05:16:40;;;;;;;65.93;17.27;;;6.50;99.90;;;;;;5076422;28;20036;-83
2021/12/19 05:19:17;;;;;;;61.92;16.88;;;6.50;99.90;;;;;;5076532;28;20051;-83
2021/12/19 05:21:43;;;;;;;59.70;16.45;;;6.40;99.90;;;;;;5075108;28;20052;-82
2021/12/19 05:26:44;;;;;;;57.67;15.00;;;6.50;99.90;;;;;;5075958;28;20040;-83
2021/12/19 05:29:10;;;;;;;72.70;15.65;;;6.40;99.90;;;;;;5076463;28;20119;-82
2021/12/19 05:31:37;;;;;;;96.93;16.65;;;6.30;99.90;;;;;;5075999;28;20133;-82
2021/12/19 05:34:03;;;;;;;72.53;16.10;;;6.30;99.90;;;;;;5076643;28;20025;-82
2021/12/19 05:47:07;;;;;;;157.50;18.55;;;6.50;99.90;;;;;;5076144;28;20036;-83
2021/12/19 05:49:34;;;;;;;70.25;15.75;;;6.70;99.90;;;;;;5076069;28;20047;-84
2021/12/19 05:52:00;;;;;;;66.50;17.17;;;6.50;99.90;;;;;;5076747;28;20032;-83
2021/12/19 05:54:27;;;;;;;79.28;17.23;;;6.50;99.90;;;;;;5076585;28;20029;-83
2021/12/19 05:56:53;;;;;;;88.53;17.38;;;6.40;99.90;;;;;;5076719;28;20021;-82
2021/12/19 05:59:19;;;;;;;65.25;17.55;;;6.40;99.90;;;;;;5076226;28;20395;-83
2021/12/19 06:01:46;;;;;;;93.78;19.63;;;6.40;99.90;;;;;;5076241;28;20036;-83
2021/12/19 06:04:13;;;;;;;72.22;17.63;;;6.40;99.90;;;;;;5076523;28;20396;-83
2021/12/19 06:06:39;;;;;;;76.95;15.75;;;6.40;99.90;;;;;;5076659;28;20108;-82
2021/12/19 06:09:05;;;;;;;70.40;17.30;;;6.40;99.90;;;;;;5074202;28;20048;-82
2021/12/19 06:11:31;;;;;;;62.20;14.90;;;6.40;99.90;;;;;;5076222;28;20021;-81
2021/12/19 06:13:57;;;;;;;71.75;15.57;;;6.30;99.90;;;;;;5075276;28;20037;-82
2021/12/19 06:16:23;;;;;;;80.82;17.25;;;6.30;99.90;;;;;;5075440;28;20029;-82
2021/12/19 06:18:49;;;;;;;74.78;17.95;;;6.30;99.90;;;;;;5074322;28;20047;-82
2021/12/19 06:21:15;;;;;;;62.10;16.33;;;6.30;99.90;;;;;;5075451;28;20021;-81
2021/12/19 06:23:40;;;;;;;68.72;17.60;;;6.30;99.90;;;;;;5073744;28;20506;-78
2021/12/19 06:26:10;;;;;;;88.40;19.85;;;6.30;99.90;;;;;;5075160;28;20485;-82
2021/12/19 06:28:36;;;;;;;82.00;19.60;;;6.40;99.90;;;;;;5074779;28;20162;-82
2021/12/19 06:31:02;;;;;;;81.25;17.83;;;6.50;99.90;;;;;;5075874;28;20064;-82
2021/12/19 06:33:28;;;;;;;60.28;15.63;;;6.70;99.90;;;;;;5075241;28;20036;-81
2021/12/19 06:35:54;;;;;;;50.25;15.57;;;6.70;99.90;;;;;;5075254;28;20031;-82
2021/12/19 06:38:19;;;;;;;46.08;15.20;;;6.80;99.90;;;;;;5074959;28;20376;-82
2021/12/19 06:40:45;;;;;;;41.83;15.10;;;6.70;99.90;;;;;;5074983;28;20032;-82
2021/12/19 06:43:11;;;;;;;50.83;16.55;;;6.50;99.90;;;;;;5074609;28;20071;-81
2021/12/19 06:45:37;;;;;;;40.55;14.27;;;6.50;99.90;;;;;;5074847;28;20427;-82
2021/12/19 06:48:02;;;;;;;36.83;13.52;;;6.60;99.90;;;;;;5074764;28;20115;-82
2021/12/19 06:50:28;;;;;;;31.73;13.32;;;6.50;99.90;;;;;;5074773;28;20035;-79
2021/12/19 06:52:54;;;;;;;40.75;15.15;;;6.50;99.90;;;;;;5073306;28;20029;-82
2021/12/19 06:55:20;;;;;;;43.33;16.17;;;6.60;99.90;;;;;;5074625;28;20039;-82
2021/12/19 06:57:46;;;;;;;32.83;12.88;;;6.50;99.90;;;;;;5074374;28;20035;-82
2021/12/19 07:00:16;;;;;;;48.67;17.23;;;6.50;99.90;;;;;;5074740;28;20025;-81
2021/12/19 07:02:42;;;;;;;43.10;16.40;;;6.50;99.90;;;;;;5074430;28;20146;-82
2021/12/19 07:05:08;;;;;;;32.35;12.60;;;6.50;99.90;;;;;;5074356;28;20020;-82
2021/12/19 07:07:35;;;;;;;32.03;14.52;;;6.50;99.90;;;;;;5074404;28;20036;-83
2021/12/19 07:10:01;;;;;;;37.67;13.45;;;6.50;99.90;;;;;;5074283;28;20025;-82
2021/12/19 07:12:27;;;;;;;31.52;12.75;;;6.50;99.90;;;;;;5072871;28;20384;-82
2021/12/19 07:14:57;;;;;;;29.23;10.93;;;6.50;99.90;;;;;;5074408;28;20100;-82
2021/12/19 07:17:23;;;;;;;22.90;10.23;;;6.50;99.90;;;;;;5074325;28;20090;-82
2021/12/19 07:19:49;;;;;;;22.23;10.32;;;6.50;99.90;;;;;;5073823;28;20033;-83
2021/12/19 07:22:15;;;;;;;24.38;10.05;;;6.50;99.90;;;;;;5074200;28;20039;-83
2021/12/19 07:24:41;;;;;;;33.63;12.02;;;6.50;99.90;;;;;;5073915;28;20031;-82
2021/12/19 07:27:07;;;;;;;30.88;11.82;;;6.60;99.90;;;;;;5073639;28;20127;-82
2021/12/19 07:29:32;;;;;;;25.38;11.25;;;6.60;99.90;;;;;;5072537;28;20095;-82
2021/12/19 07:31:59;;;;;;;33.03;10.98;;;6.60;99.90;;;;;;5074117;28;20064;-82
2021/12/19 07:34:31;;;;;;;27.65;12.48;;;6.70;99.90;;;;;;5073776;28;20095;-82
2021/12/19 07:36:57;;;;;;;30.77;11.35;;;6.70;99.90;;;;;;5073918;28;20456;-82
2021/12/19 07:39:39;;;;;;;34.95;11.82;;;6.60;99.90;;;;;;5073735;28;20052;-82
2021/12/19 07:42:08;;;;;;;27.40;11.38;;;6.60;99.90;;;;;;5073666;28;20157;-82
2021/12/19 07:44:35;;;;;;;28.73;11.95;;;6.60;99.90;;;;;;5072427;28;20099;-82
2021/12/19 07:47:01;;;;;;;31.70;12.15;;;6.70;99.90;;;;;;5073552;28;20032;-82
2021/12/19 07:49:27;;;;;;;33.50;11.77;;;6.70;99.90;;;;;;5073622;28;20037;-83
2021/12/19 07:51:54;;;;;;;25.05;11.75;;;6.80;99.90;;;;;;5073658;28;20058;-83
2021/12/19 07:54:20;;;;;;;31.05;10.88;;;6.80;99.90;;;;;;5073601;28;20049;-82
2021/12/19 07:56:46;;;;;;;28.52;11.30;;;6.80;99.90;;;;;;5073256;28;20033;-82
2021/12/19 07:59:13;;;;;;;27.40;10.77;;;6.80;99.90;;;;;;5073440;28;20144;-83
2021/12/19 08:01:38;;;;;;;36.97;12.43;;;6.70;99.90;;;;;;5073333;28;20473;-82
2021/12/19 08:04:04;;;;;;;34.33;13.50;;;6.70;99.90;;;;;;5073324;28;20023;-82
2021/12/19 08:06:30;;;;;;;37.20;14.82;;;6.70;99.90;;;;;;5073033;28;20032;-82
2021/12/19 08:08:58;;;;;;;35.90;14.25;;;6.60;99.90;;;;;;5073175;28;20024;-81
2021/12/19 08:11:40;;;;;;;42.58;15.00;;;6.50;99.90;;;;;;5072908;28;20040;-81
2021/12/19 08:14:08;;;;;;;43.05;14.82;;;6.70;99.90;;;;;;5073306;28;20506;-82
2021/12/19 08:16:35;;;;;;;42.05;15.15;;;6.80;99.90;;;;;;5073434;28;20358;-82
2021/12/19 08:19:00;;;;;;;44.30;17.08;;;6.80;99.90;;;;;;5073619;28;20043;-80
2021/12/19 08:21:26;;;;;;;41.53;14.82;;;6.90;99.90;;;;;;5073318;28;20025;-79
2021/12/19 08:23:52;;;;;;;49.38;16.10;;;6.70;99.90;;;;;;5072704;28;20029;-81
2021/12/19 08:26:19;;;;;;;55.80;16.63;;;6.70;99.90;;;;;;5072886;28;20075;-81
2021/12/19 08:28:45;;;;;;;47.97;16.75;;;6.70;99.90;;;;;;5072936;28;20522;-82
2021/12/19 08:31:10;;;;;;;49.83;17.88;;;6.70;99.90;;;;;;5071075;28;20031;-81
2021/12/19 08:33:36;;;;;;;47.63;16.90;;;6.80;99.90;;;;;;5072885;28;20475;-85
2021/12/19 08:36:02;;;;;;;53.17;18.42;;;6.80;99.90;;;;;;5072906;28;20020;-80
2021/12/19 08:38:28;;;;;;;49.35;17.55;;;6.80;99.90;;;;;;5072780;28;20538;-81
2021/12/19 08:40:55;;;;;;;46.05;17.05;;;7.00;99.90;;;;;;5072874;28;20033;-81
2021/12/19 08:43:21;;;;;;;54.47;17.42;;;7.00;99.90;;;;;;5072947;28;20141;-81
2021/12/19 08:45:47;;;;;;;45.90;15.75;;;7.00;99.90;;;;;;5072722;28;20475;-81
2021/12/19 08:48:14;;;;;;;49.88;16.10;;;7.00;99.90;;;;;;5072991;28;20098;-81
2021/12/19 08:50:40;;;;;;;47.47;15.40;;;7.20;99.90;;;;;;5072875;28;20028;-81
2021/12/19 08:53:06;;;;;;;33.97;14.48;;;7.20;99.90;;;;;;5072363;28;20062;-80
2021/12/19 08:55:33;;;;;;;50.67;16.25;;;7.10;99.90;;;;;;5072610;28;20476;-81
2021/12/19 08:57:59;;;;;;;36.72;14.63;;;7.10;99.90;;;;;;5073208;28;20376;-79
2021/12/19 09:00:24;;;;;;;41.47;16.33;;;7.30;99.90;;;;;;5072880;28;20017;-81
2021/12/19 09:02:53;;;;;;;44.85;16.45;;;7.30;99.90;;;;;;5072576;28;20040;-80
2021/12/19 09:05:20;;;;;;;52.58;17.00;;;7.30;99.90;;;;;;5072645;28;20017;-81
2021/12/19 09:07:46;;;;;;;38.30;16.00;;;7.60;99.90;;;;;;5072235;28;20041;-80
2021/12/19 09:10:11;;;;;;;37.25;16.15;;;7.40;99.90;;;;;;5072470;28;20039;-80
2021/12/19 09:12:37;;;;;;;34.30;15.27;;;7.20;99.90;;;;;;5072511;28;20032;-81
2021/12/19 09:15:05;;;;;;;40.65;14.23;;;7.10;99.90;;;;;;5072589;28;20027;-80
2021/12/19 09:17:31;;;;;;;38.83;15.30;;;7.10;99.90;;;;;;5072575;28;20086;-81
2021/12/19 09:19:56;;;;;;;33.60;15.73;;;7.30;99.90;;;;;;5072411;28;20033;-81
2021/12/19 09:22:23;;;;;;;31.25;14.13;;;7.50;99.90;;;;;;5072260;28;20031;-81
2021/12/19 09:24:48;;;;;;;25.42;11.98;;;7.60;99.90;;;;;;5072446;28;20020;-81
2021/12/19 09:27:14;;;;;;;30.75;12.73;;;7.80;99.90;;;;;;5072005;28;20045;-81
2021/12/19 09:29:40;;;;;;;26.42;11.63;;;7.90;99.90;;;;;;5072536;28;20023;-80
2021/12/19 09:32:06;;;;;;;23.58;9.50;;;7.70;99.90;;;;;;5072299;28;20032;-81
2021/12/19 09:34:32;;;;;;;24.60;10.73;;;7.80;99.90;;;;;;5072354;28;20031;-81
2021/12/19 09:36:58;;;;;;;22.00;10.18;;;8.10;99.90;;;;;;5070799;28;20024;-81
2021/12/19 09:39:24;;;;;;;25.88;10.68;;;7.80;99.90;;;;;;5072163;28;20040;-81
2021/12/19 09:42:01;;;;;;;21.83;11.20;;;7.60;99.90;;;;;;5072249;28;20480;-80
2021/12/19 09:44:27;;;;;;;25.35;11.13;;;7.60;99.90;;;;;;5074270;28;20440;-81
2021/12/19 09:46:53;;;;;;;27.17;11.25;;;7.80;99.90;;;;;;5075630;28;20108;-81
2021/12/19 09:49:21;;;;;;;28.50;10.15;;;8.00;99.90;;;;;;5076089;28;20127;-81
2021/12/19 09:51:49;;;;;;;26.40;9.32;;;8.30;99.90;;;;;;5075643;28;20370;-81
2021/12/19 09:54:15;;;;;;;18.80;9.23;;;8.30;99.90;;;;;;5075847;28;20035;-82
2021/12/19 09:56:42;;;;;;;20.90;8.18;;;8.30;99.90;;;;;;5075699;28;20060;-81
2021/12/19 09:59:20;;;;;;;14.93;8.18;;;8.40;99.90;;;;;;5075768;28;20165;-80
2021/12/19 10:01:47;;;;;;;15.70;6.75;;;8.60;99.90;;;;;;5075721;28;20068;-80
2021/12/19 10:04:35;;;;;;;12.05;6.57;;;8.30;99.90;;;;;;5075571;28;20020;-80
2021/12/19 10:07:10;;;;;;;14.50;7.15;;;8.20;99.90;;;;;;5074886;28;20045;-80
2021/12/19 10:09:55;;;;;;;11.98;6.90;;;8.20;99.90;;;;;;5075424;28;20031;-80
2021/12/19 10:14:59;;;;;;;14.57;6.88;;;8.30;99.90;;;;;;5073937;28;20123;-81
2021/12/19 10:17:25;;;;;;;14.05;8.05;;;8.40;99.90;;;;;;5075512;28;20103;-79
2021/12/19 10:19:52;;;;;;;11.32;6.97;;;8.40;99.90;;;;;;5074950;28;20147;-81
2021/12/19 10:22:36;;;;;;;13.70;7.57;;;8.20;99.90;;;;;;5075343;28;20033;-80
2021/12/19 10:25:19;;;;;;;10.30;6.03;;;8.00;99.90;;;;;;5075160;28;20465;-80
2021/12/19 10:27:55;;;;;;;10.10;5.88;;;8.00;99.90;;;;;;5073788;28;20069;-80
2021/12/19 10:30:33;;;;;;;8.82;5.45;;;8.10;99.90;;;;;;5075209;28;20032;-80
2021/12/19 10:33:00;;;;;;;10.85;5.05;;;8.20;99.90;;;;;;5075464;28;20032;-81
2021/12/19 10:35:30;;;;;;;6.57;4.25;;;8.20;99.90;;;;;;5074938;28;20564;-81
2021/12/19 10:37:57;;;;;;;5.40;4.20;;;8.30;99.90;;;;;;5074870;28;20037;-81
2021/12/19 10:40:23;;;;;;;6.78;3.28;;;8.50;99.90;;;;;;5074802;28;20380;-81
2021/12/19 10:42:55;;;;;;;7.63;3.13;;;8.40;99.90;;;;;;5074878;28;20093;-80
2021/12/19 10:45:31;;;;;;;5.95;3.22;;;8.20;99.90;;;;;;5074780;28;20021;-81
2021/12/19 10:48:29;;;;;;;3.63;2.28;;;8.20;99.90;;;;;;5074667;28;20465;-81
2021/12/19 10:51:03;;;;;;;5.63;2.55;;;8.30;99.90;;;;;;5073282;28;20048;-81
2021/12/19 10:53:55;;;;;;;3.47;1.90;;;8.20;99.90;;;;;;5074688;28;20051;-77
2021/12/19 10:56:29;;;;;;;5.53;3.00;;;8.40;99.90;;;;;;5073122;28;20036;-79
2021/12/19 10:59:00;;;;;;;4.07;3.00;;;8.70;99.90;;;;;;5074394;28;20040;-80
2021/12/19 11:01:35;;;;;;;6.78;3.92;;;8.80;99.90;;;;;;5074620;28;20123;-81
2021/12/19 11:04:19;;;;;;;2.75;1.40;;;8.60;99.90;;;;;;5074036;28;20047;-81
2021/12/19 11:06:54;;;;;;;2.22;1.92;;;8.50;99.90;;;;;;5074215;28;20072;-80
2021/12/19 11:09:29;;;;;;;4.18;2.40;;;8.50;99.90;;;;;;5074203;28;20186;-80
2021/12/19 11:11:56;;;;;;;3.08;2.25;;;8.50;99.90;;;;;;5074394;28;20431;-79
2021/12/19 11:14:33;;;;;;;5.35;2.35;;;8.70;99.90;;;;;;5074102;28;20033;-80
2021/12/19 11:17:07;;;;;;;4.13;1.40;;;9.10;99.90;;;;;;5074375;28;20024;-80
2021/12/19 11:19:33;;;;;;;1.85;1.10;;;9.10;99.90;;;;;;5073645;28;20075;-80
2021/12/19 11:22:00;;;;;;;3.55;3.03;;;9.10;99.90;;;;;;5074485;28;20465;-80
2021/12/19 11:24:27;;;;;;;3.88;3.05;;;9.40;99.90;;;;;;5074123;28;20024;-80
2021/12/19 11:26:55;;;;;;;4.20;2.30;;;9.70;99.90;;;;;;5074091;28;20047;-80
2021/12/19 11:29:22;;;;;;;1.80;1.33;;;9.50;99.90;;;;;;5073954;28;20066;-80
2021/12/19 11:31:52;;;;;;;1.70;1.30;;;9.30;99.90;;;;;;5074273;28;20028;-81
2021/12/19 11:34:24;;;;;;;2.78;1.50;;;9.20;99.90;;;;;;5073795;28;20024;-80
2021/12/19 11:37:13;;;;;;;4.40;1.95;;;9.20;99.90;;;;;;5074109;28;20036;-80
2021/12/19 11:39:42;;;;;;;2.95;1.95;;;9.00;99.90;;;;;;5072399;28;20540;-80
2021/12/19 11:42:14;;;;;;;3.85;2.95;;;8.70;99.90;;;;;;5073804;28;20590;-81
2021/12/19 11:47:47;;;;;;;5.05;4.18;;;8.80;99.90;;;;;;5073362;28;20167;-77
2021/12/19 11:50:29;;;;;;;9.32;4.80;;;8.90;99.90;;;;;;5073580;28;20033;-79
2021/12/19 11:52:56;;;;;;;6.65;4.55;;;8.60;99.90;;;;;;5073835;28;20032;-80
2021/12/19 11:55:41;;;;;;;7.28;4.30;;;8.60;99.90;;;;;;5072157;28;20021;-80
2021/12/19 11:58:11;;;;;;;5.63;3.75;;;8.60;99.90;;;;;;5073848;28;20052;-80
2021/12/19 12:00:39;;;;;;;6.25;3.53;;;8.50;99.90;;;;;;5073365;28;20472;-80
2021/12/19 12:03:13;;;;;;;6.00;3.88;;;8.50;99.90;;;;;;5074172;28;20119;-80
2021/12/19 12:06:13;;;;;;;5.38;3.88;;;8.70;99.90;;;;;;5073790;28;20051;-80
2021/12/19 12:08:38;;;;;;;6.57;3.28;;;8.90;99.90;;;;;;5071940;28;20044;-80
2021/12/19 12:11:04;;;;;;;7.40;3.40;;;9.00;99.90;;;;;;5073408;28;20021;-80
2021/12/19 12:13:34;;;;;;;4.13;2.83;;;9.00;99.90;;;;;;5073815;28;20033;-80
2021/12/19 12:16:18;;;;;;;4.00;2.85;;;8.70;99.90;;;;;;5072997;28;20056;-78
2021/12/19 12:18:43;;;;;;;3.80;2.80;;;8.90;99.90;;;;;;5073212;28;20465;-80
2021/12/19 12:21:19;;;;;;;3.83;2.97;;;8.90;99.90;;;;;;5073255;28;20033;-80
2021/12/19 12:23:55;;;;;;;4.03;3.33;;;8.80;99.90;;;;;;5072030;28;20054;-82
2021/12/19 12:26:24;;;;;;;6.22;3.60;;;8.80;99.90;;;;;;5054961;28;20063;-82
2021/12/19 12:28:51;;;;;;;5.88;3.55;;;8.70;99.90;;;;;;5072954;28;20059;-81
2021/12/19 12:31:17;;;;;;;4.20;3.35;;;8.80;99.90;;;;;;5072963;28;20063;-81
2021/12/19 12:33:42;;;;;;;6.50;4.10;;;8.60;99.90;;;;;;5073111;28;20028;-81
2021/12/19 12:36:08;;;;;;;6.57;3.35;;;8.60;99.90;;;;;;5073018;28;20017;-81
2021/12/19 12:38:34;;;;;;;6.63;3.58;;;8.70;99.90;;;;;;5073140;28;20028;-81
2021/12/19 12:41:27;;;;;;;5.35;3.13;;;8.70;99.90;;;;;;5072860;28;20035;-81
2021/12/19 12:43:46;;;;;;;4.80;2.40;;;8.60;99.90;;;;;;5072919;28;20122;-81
2021/12/19 12:46:16;;;;;;;5.00;2.65;;;8.70;99.90;;;;;;5071341;28;20060;-81
2021/12/19 12:48:51;;;;;;;3.40;3.10;;;8.90;99.90;;;;;;5073626;28;20041;-81
2021/12/19 12:51:24;;;;;;;5.38;2.78;;;9.00;99.90;;;;;;5071469;28;20044;-81
2021/12/19 12:53:53;;;;;;;5.55;2.75;;;9.00;99.90;;;;;;5072846;28;20135;-80
2021/12/19 12:56:33;;;;;;;4.78;2.95;;;8.90;99.90;;;;;;5072783;28;20033;-81
2021/12/19 12:59:00;;;;;;;3.95;3.00;;;9.00;99.90;;;;;;5071901;28;20477;-81
2021/12/19 13:01:37;;;;;;;4.85;2.90;;;9.00;99.90;;;;;;5072285;28;20133;-81
2021/12/19 13:04:16;;;;;;;13.00;5.32;;;9.00;99.90;;;;;;5059177;28;20037;-80
2021/12/19 13:06:56;;;;;;;18.30;7.25;;;8.90;99.90;;;;;;5052899;28;20527;-81
2021/12/19 13:09:30;;;;;;;14.18;6.82;;;8.90;99.90;;;;;;5063575;28;20405;-81
2021/12/19 13:12:11;;;;;;;9.32;5.85;;;8.90;99.90;;;;;;5072563;28;20036;-81
2021/12/19 13:14:45;;;;;;;11.80;6.13;;;8.80;99.90;;;;;;5072244;28;20082;-80
2021/12/19 13:17:19;;;;;;;10.20;5.75;;;8.80;99.90;;;;;;5072429;28;20063;-79
2021/12/19 13:19:56;;;;;;;12.25;6.38;;;8.70;99.90;;;;;;5076439;28;20415;-81
2021/12/19 13:22:30;;;;;;;10.95;6.03;;;8.90;99.90;;;;;;5076381;28;20119;-82
2021/12/19 13:25:08;;;;;;;8.38;4.80;;;8.90;99.90;;;;;;5076125;28;20454;-81
2021/12/19 13:27:38;;;;;;;6.40;3.72;;;8.80;99.90;;;;;;5076226;28;20072;-82
2021/12/19 13:30:24;;;;;;;8.55;4.40;;;8.80;99.90;;;;;;5075999;28;20473;-82
2021/12/19 13:32:50;;;;;;;8.95;5.43;;;8.70;99.90;;;;;;5076058;28;20044;-82
2021/12/19 13:35:29;;;;;;;7.45;5.00;;;8.80;99.90;;;;;;5076208;28;20082;-82
2021/12/19 13:38:07;;;;;;;8.95;4.75;;;8.70;99.90;;;;;;5074781;28;20111;-82
2021/12/19 13:40:45;;;;;;;11.52;4.82;;;8.70;99.90;;;;;;5076119;28;20052;-82
2021/12/19 13:43:23;;;;;;;6.28;4.30;;;8.80;99.90;;;;;;5074254;28;20028;-82
2021/12/19 13:45:50;;;;;;;6.28;4.03;;;9.00;99.90;;;;;;5076188;28;20503;-82
2021/12/19 13:48:18;;;;;;;5.25;4.07;;;9.00;99.90;;;;;;5074498;28;20377;-82
2021/12/19 13:51:07;;;;;;;10.65;4.47;;;8.90;99.90;;;;;;5075807;28;20028;-81
2021/12/19 13:53:36;;;;;;;7.05;3.78;;;9.10;99.90;;;;;;5075501;28;20046;-82
2021/12/19 13:56:13;;;;;;;4.43;3.05;;;9.20;99.90;;;;;;5075980;28;20056;-81